sensor_id;sensor_type;location;lat;lon;timestamp;temperature;humidity
45012;DHT22;63444;48.148;11.542;2023-01-10T00:00:30;4.90;99.90
45012;DHT22;63444;48.148;11.542;2023-01-10T00:03:00;4.90;99.90
45012;DHT22;63444;48.148;11.542;2023-01-10T00:05:25;4.90;99.90
45012;DHT22;63444;48.148;11.542;2023-01-10T00:07:51;5.00;99.90
45012;DHT22;63444;48.148;11.542;2023-01-10T00:10:16;5.00;99.90
45012;DHT22;63444;48.148;11.542;2023-01-10T00:12:42;4.90;99.90
45012;DHT22;63444;48.148;11.542;2023-01-10T00:15:26;4.80;99.90
45012;DHT22;63444;48.148;11.542;2023-01-10T00:17:52;4.90;99.90
45012;DHT22;63444;48.148;11.542;2023-01-10T00:20:17;4.90;99.90
45012;DHT22;63444;48.148;11.542;2023-01-10T00:22:43;5.00;99.90
45012;DHT22;63444;48.148;11.542;2023-01-10T00:25:10;5.00;99.90
45012;DHT22;63444;48.148;11.542;2023-01-10T00:27:35;5.10;99.90
45012;DHT22;63444;48.148;11.542;2023-01-10T00:30:01;5.00;99.90
45012;DHT22;63444;48.148;11.542;2023-01-10T00:32:36;5.00;99.90
45012;DHT22;63444;48.148;11.542;2023-01-10T00:35:02;5.00;99.90
45012;DHT22;63444;48.148;11.542;2023-01-10T00:37:31;5.00;99.90
45012;DHT22;63444;48.148;11.542;2023-01-10T00:39:56;5.10;99.90
45012;DHT22;63444;48.148;11.542;2023-01-10T00:42:23;5.10;99.90
45012;DHT22;63444;48.148;11.542;2023-01-10T00:45:07;5.10;99.90
45012;DHT22;63444;48.148;11.542;2023-01-10T00:47:33;5.10;99.90
45012;DHT22;63444;48.148;11.542;2023-01-10T00:49:58;5.10;99.90
45012;DHT22;63444;48.148;11.542;2023-01-10T00:52:24;5.10;99.90
45012;DHT22;63444;48.148;11.542;2023-01-10T00:54:49;5.10;99.90
45012;DHT22;63444;48.148;11.542;2023-01-10T00:57:15;5.10;99.90
45012;DHT22;63444;48.148;11.542;2023-01-10T00:59:40;5.00;99.90
45012;DHT22;63444;48.148;11.542;2023-01-10T01:02:06;5.10;99.90
45012;DHT22;63444;48.148;11.542;2023-01-10T01:04:32;5.20;99.90
45012;DHT22;63444;48.148;11.542;2023-01-10T01:07:00;5.20;99.90
45012;DHT22;63444;48.148;11.542;2023-01-10T01:09:28;5.20;99.90
45012;DHT22;63444;48.148;11.542;2023-01-10T01:11:53;5.20;99.90
45012;DHT22;63444;48.148;11.542;2023-01-10T01:14:21;5.10;99.90
45012;DHT22;63444;48.148;11.542;2023-01-10T01:16:46;5.20;99.90
45012;DHT22;63444;48.148;11.542;2023-01-10T01:19:12;5.20;99.90
45012;DHT22;63444;48.148;11.542;2023-01-10T01:21:37;5.20;99.90
45012;DHT22;63444;48.148;11.542;2023-01-10T01:24:05;5.20;99.90
45012;DHT22;63444;48.148;11.542;2023-01-10T01:26:31;5.20;99.90
45012;DHT22;63444;48.148;11.542;2023-01-10T01:28:59;5.20;99.90
45012;DHT22;63444;48.148;11.542;2023-01-10T01:31:25;5.20;99.90
45012;DHT22;63444;48.148;11.542;2023-01-10T01:33:50;5.20;99.90
45012;DHT22;63444;48.148;11.542;2023-01-10T01:36:17;5.30;99.90
45012;DHT22;63444;48.148;11.542;2023-01-10T01:38:44;5.20;99.90
45012;DHT22;63444;48.148;11.542;2023-01-10T01:41:09;5.20;99.90
45012;DHT22;63444;48.148;11.542;2023-01-10T01:44:21;5.20;99.90
45012;DHT22;63444;48.148;11.542;2023-01-10T01:46:59;5.20;99.90
45012;DHT22;63444;48.148;11.542;2023-01-10T01:49:27;5.20;99.90
45012;DHT22;63444;48.148;11.542;2023-01-10T01:51:58;5.20;99.90
45012;DHT22;63444;48.148;11.542;2023-01-10T01:54:27;5.10;99.90
45012;DHT22;63444;48.148;11.542;2023-01-10T01:57:10;5.10;99.90
45012;DHT22;63444;48.148;11.542;2023-01-10T01:59:42;5.10;99.90
45012;DHT22;63444;48.148;11.542;2023-01-10T02:02:30;5.30;99.90
45012;DHT22;63444;48.148;11.542;2023-01-10T02:05:06;5.20;99.90
45012;DHT22;63444;48.148;11.542;2023-01-10T02:07:38;5.20;99.90
45012;DHT22;63444;48.148;11.542;2023-01-10T02:10:23;5.10;99.90
45012;DHT22;63444;48.148;11.542;2023-01-10T02:12:52;5.10;99.90
45012;DHT22;63444;48.148;11.542;2023-01-10T02:15:19;5.10;99.90
45012;DHT22;63444;48.148;11.542;2023-01-10T02:17:49;5.10;99.90
45012;DHT22;63444;48.148;11.542;2023-01-10T02:20:17;5.00;99.90
45012;DHT22;63444;48.148;11.542;2023-01-10T02:25:54;5.10;99.90
45012;DHT22;63444;48.148;11.542;2023-01-10T02:34:16;5.10;99.90
45012;DHT22;63444;48.148;11.542;2023-01-10T02:39:23;5.00;99.90
45012;DHT22;63444;48.148;11.542;2023-01-10T02:41:56;5.10;99.90
45012;DHT22;63444;48.148;11.542;2023-01-10T02:47:03;5.00;99.90
45012;DHT22;63444;48.148;11.542;2023-01-10T02:49:29;5.00;99.90
45012;DHT22;63444;48.148;11.542;2023-01-10T02:51:55;5.00;99.90
45012;DHT22;63444;48.148;11.542;2023-01-10T02:54:25;5.10;99.90
45012;DHT22;63444;48.148;11.542;2023-01-10T03:00:02;5.00;99.90
45012;DHT22;63444;48.148;11.542;2023-01-10T03:02:48;5.00;99.90
45012;DHT22;63444;48.148;11.542;2023-01-10T03:10:48;5.00;99.90
45012;DHT22;63444;48.148;11.542;2023-01-10T03:13:29;5.00;99.90
45012;DHT22;63444;48.148;11.542;2023-01-10T03:15:56;5.00;99.90
45012;DHT22;63444;48.148;11.542;2023-01-10T03:18:29;4.90;99.90
45012;DHT22;63444;48.148;11.542;2023-01-10T03:20:57;4.90;99.90
45012;DHT22;63444;48.148;11.542;2023-01-10T03:23:24;4.90;99.90
45012;DHT22;63444;48.148;11.542;2023-01-10T03:25:51;5.00;99.90
45012;DHT22;63444;48.148;11.542;2023-01-10T03:28:46;5.00;99.90
45012;DHT22;63444;48.148;11.542;2023-01-10T03:31:16;5.00;99.90
45012;DHT22;63444;48.148;11.542;2023-01-10T03:33:43;5.00;99.90
45012;DHT22;63444;48.148;11.542;2023-01-10T03:36:33;4.90;99.90
45012;DHT22;63444;48.148;11.542;2023-01-10T03:44:37;5.10;99.90
45012;DHT22;63444;48.148;11.542;2023-01-10T03:49:45;5.10;99.90
45012;DHT22;63444;48.148;11.542;2023-01-10T03:52:15;5.00;99.90
45012;DHT22;63444;48.148;11.542;2023-01-10T03:54:43;5.00;99.90
45012;DHT22;63444;48.148;11.542;2023-01-10T03:57:15;5.10;99.90
45012;DHT22;63444;48.148;11.542;2023-01-10T03:59:42;5.00;99.90
45012;DHT22;63444;48.148;11.542;2023-01-10T04:02:07;5.00;99.90
45012;DHT22;63444;48.148;11.542;2023-01-10T04:04:33;5.00;99.90
45012;DHT22;63444;48.148;11.542;2023-01-10T04:06:58;5.00;99.90
45012;DHT22;63444;48.148;11.542;2023-01-10T04:09:24;5.00;99.90
45012;DHT22;63444;48.148;11.542;2023-01-10T04:11:49;4.90;99.90
45012;DHT22;63444;48.148;11.542;2023-01-10T04:14:15;5.00;99.90
45012;DHT22;63444;48.148;11.542;2023-01-10T04:16:41;5.00;99.90
45012;DHT22;63444;48.148;11.542;2023-01-10T04:19:06;5.00;99.90
45012;DHT22;63444;48.148;11.542;2023-01-10T04:21:32;5.00;99.90
45012;DHT22;63444;48.148;11.542;2023-01-10T04:23:57;5.00;99.90
45012;DHT22;63444;48.148;11.542;2023-01-10T04:26:23;5.00;99.90
45012;DHT22;63444;48.148;11.542;2023-01-10T04:28:48;5.00;99.90
45012;DHT22;63444;48.148;11.542;2023-01-10T04:31:14;5.10;99.90
45012;DHT22;63444;48.148;11.542;2023-01-10T04:33:40;5.10;99.90
45012;DHT22;63444;48.148;11.542;2023-01-10T04:36:05;5.20;99.90
45012;DHT22;63444;48.148;11.542;2023-01-10T04:38:31;5.10;99.90
45012;DHT22;63444;48.148;11.542;2023-01-10T04:40:57;5.10;99.90
45012;DHT22;63444;48.148;11.542;2023-01-10T04:43:23;5.10;99.90
45012;DHT22;63444;48.148;11.542;2023-01-10T04:45:49;5.10;99.90
45012;DHT22;63444;48.148;11.542;2023-01-10T04:48:15;5.10;99.90
45012;DHT22;63444;48.148;11.542;2023-01-10T04:50:41;5.10;99.90
45012;DHT22;63444;48.148;11.542;2023-01-10T04:53:07;5.10;99.90
45012;DHT22;63444;48.148;11.542;2023-01-10T04:55:34;5.10;99.90
45012;DHT22;63444;48.148;11.542;2023-01-10T04:58:01;5.20;99.90
45012;DHT22;63444;48.148;11.542;2023-01-10T05:00:26;5.10;99.90
45012;DHT22;63444;48.148;11.542;2023-01-10T05:02:56;5.10;99.90
45012;DHT22;63444;48.148;11.542;2023-01-10T05:05:22;5.10;99.90
45012;DHT22;63444;48.148;11.542;2023-01-10T05:07:48;5.10;99.90
45012;DHT22;63444;48.148;11.542;2023-01-10T05:10:14;5.00;99.90
45012;DHT22;63444;48.148;11.542;2023-01-10T05:12:40;5.10;99.90
45012;DHT22;63444;48.148;11.542;2023-01-10T05:15:06;4.90;99.90
45012;DHT22;63444;48.148;11.542;2023-01-10T05:17:32;5.00;99.90
45012;DHT22;63444;48.148;11.542;2023-01-10T05:20:00;5.00;99.90
45012;DHT22;63444;48.148;11.542;2023-01-10T05:22:26;5.00;99.90
45012;DHT22;63444;48.148;11.542;2023-01-10T05:24:52;5.10;99.90
45012;DHT22;63444;48.148;11.542;2023-01-10T05:27:17;5.00;99.90
45012;DHT22;63444;48.148;11.542;2023-01-10T05:29:43;5.00;99.90
45012;DHT22;63444;48.148;11.542;2023-01-10T05:32:09;5.00;99.90
45012;DHT22;63444;48.148;11.542;2023-01-10T05:34:34;5.00;99.90
45012;DHT22;63444;48.148;11.542;2023-01-10T05:37:00;5.00;99.90
45012;DHT22;63444;48.148;11.542;2023-01-10T05:39:26;5.00;99.90
45012;DHT22;63444;48.148;11.542;2023-01-10T05:41:52;5.00;99.90
45012;DHT22;63444;48.148;11.542;2023-01-10T05:44:17;5.00;99.90
45012;DHT22;63444;48.148;11.542;2023-01-10T05:46:43;5.00;99.90
45012;DHT22;63444;48.148;11.542;2023-01-10T05:49:08;4.90;99.90
45012;DHT22;63444;48.148;11.542;2023-01-10T05:51:35;4.90;99.90
45012;DHT22;63444;48.148;11.542;2023-01-10T05:54:01;4.90;99.90
45012;DHT22;63444;48.148;11.542;2023-01-10T05:56:26;4.90;99.90
45012;DHT22;63444;48.148;11.542;2023-01-10T05:58:53;5.00;99.90
45012;DHT22;63444;48.148;11.542;2023-01-10T06:01:19;5.00;99.90
45012;DHT22;63444;48.148;11.542;2023-01-10T06:03:44;4.90;99.90
45012;DHT22;63444;48.148;11.542;2023-01-10T06:06:10;4.90;99.90
45012;DHT22;63444;48.148;11.542;2023-01-10T06:08:36;4.90;99.90
45012;DHT22;63444;48.148;11.542;2023-01-10T06:11:03;4.90;99.90
45012;DHT22;63444;48.148;11.542;2023-01-10T06:13:29;4.90;99.90
45012;DHT22;63444;48.148;11.542;2023-01-10T06:15:54;4.90;99.90
45012;DHT22;63444;48.148;11.542;2023-01-10T06:18:20;4.90;99.90
45012;DHT22;63444;48.148;11.542;2023-01-10T06:20:46;4.90;99.90
45012;DHT22;63444;48.148;11.542;2023-01-10T06:23:11;5.00;99.90
45012;DHT22;63444;48.148;11.542;2023-01-10T06:25:37;5.00;99.90
45012;DHT22;63444;48.148;11.542;2023-01-10T06:28:06;5.00;99.90
45012;DHT22;63444;48.148;11.542;2023-01-10T06:30:32;4.90;99.90
45012;DHT22;63444;48.148;11.542;2023-01-10T06:33:04;4.90;99.90
45012;DHT22;63444;48.148;11.542;2023-01-10T06:35:30;5.00;99.90
45012;DHT22;63444;48.148;11.542;2023-01-10T06:37:56;5.00;99.90
45012;DHT22;63444;48.148;11.542;2023-01-10T06:40:22;4.90;99.90
45012;DHT22;63444;48.148;11.542;2023-01-10T06:42:47;5.00;99.90
45012;DHT22;63444;48.148;11.542;2023-01-10T06:45:14;5.00;99.90
45012;DHT22;63444;48.148;11.542;2023-01-10T06:47:39;5.00;99.90
45012;DHT22;63444;48.148;11.542;2023-01-10T06:50:05;5.00;99.90
45012;DHT22;63444;48.148;11.542;2023-01-10T06:52:31;5.00;99.90
45012;DHT22;63444;48.148;11.542;2023-01-10T06:54:57;5.10;99.90
45012;DHT22;63444;48.148;11.542;2023-01-10T06:57:22;5.00;99.90
45012;DHT22;63444;48.148;11.542;2023-01-10T06:59:48;5.00;99.90
45012;DHT22;63444;48.148;11.542;2023-01-10T07:02:13;5.00;99.90
45012;DHT22;63444;48.148;11.542;2023-01-10T07:04:39;5.10;99.90
45012;DHT22;63444;48.148;11.542;2023-01-10T07:07:05;5.00;99.90
45012;DHT22;63444;48.148;11.542;2023-01-10T07:09:30;5.00;99.90
45012;DHT22;63444;48.148;11.542;2023-01-10T07:11:56;4.90;99.90
45012;DHT22;63444;48.148;11.542;2023-01-10T07:14:22;5.00;99.90
45012;DHT22;63444;48.148;11.542;2023-01-10T07:16:47;5.00;99.90
45012;DHT22;63444;48.148;11.542;2023-01-10T07:19:13;5.00;99.90
45012;DHT22;63444;48.148;11.542;2023-01-10T07:21:40;5.00;99.90
45012;DHT22;63444;48.148;11.542;2023-01-10T07:24:07;5.00;99.90
45012;DHT22;63444;48.148;11.542;2023-01-10T07:26:32;5.00;99.90
45012;DHT22;63444;48.148;11.542;2023-01-10T07:28:59;5.10;99.90
45012;DHT22;63444;48.148;11.542;2023-01-10T07:31:24;5.00;99.90
45012;DHT22;63444;48.148;11.542;2023-01-10T07:33:51;5.00;99.90
45012;DHT22;63444;48.148;11.542;2023-01-10T07:36:17;5.10;99.90
45012;DHT22;63444;48.148;11.542;2023-01-10T07:38:43;5.00;99.90
45012;DHT22;63444;48.148;11.542;2023-01-10T07:41:09;5.00;99.90
45012;DHT22;63444;48.148;11.542;2023-01-10T07:43:35;4.90;99.90
45012;DHT22;63444;48.148;11.542;2023-01-10T07:46:03;4.90;99.90
45012;DHT22;63444;48.148;11.542;2023-01-10T07:48:29;5.00;99.90
45012;DHT22;63444;48.148;11.542;2023-01-10T07:50:56;5.30;99.90
45012;DHT22;63444;48.148;11.542;2023-01-10T07:53:22;5.60;99.90
45012;DHT22;63444;48.148;11.542;2023-01-10T07:55:48;5.70;99.90
45012;DHT22;63444;48.148;11.542;2023-01-10T07:58:14;5.70;99.90
45012;DHT22;63444;48.148;11.542;2023-01-10T08:00:40;5.60;99.90
45012;DHT22;63444;48.148;11.542;2023-01-10T08:03:05;5.50;99.90
45012;DHT22;63444;48.148;11.542;2023-01-10T08:05:31;5.40;99.90
45012;DHT22;63444;48.148;11.542;2023-01-10T08:08:04;5.30;99.90
45012;DHT22;63444;48.148;11.542;2023-01-10T08:10:29;5.40;99.90
45012;DHT22;63444;48.148;11.542;2023-01-10T08:12:55;5.20;99.90
45012;DHT22;63444;48.148;11.542;2023-01-10T08:15:20;5.20;99.90
45012;DHT22;63444;48.148;11.542;2023-01-10T08:17:47;5.20;99.90
45012;DHT22;63444;48.148;11.542;2023-01-10T08:20:14;5.10;99.90
45012;DHT22;63444;48.148;11.542;2023-01-10T08:22:39;5.10;99.90
45012;DHT22;63444;48.148;11.542;2023-01-10T08:25:05;5.10;99.90
45012;DHT22;63444;48.148;11.542;2023-01-10T08:27:30;5.10;99.90
45012;DHT22;63444;48.148;11.542;2023-01-10T08:29:56;5.10;99.90
45012;DHT22;63444;48.148;11.542;2023-01-10T08:32:22;5.20;99.90
45012;DHT22;63444;48.148;11.542;2023-01-10T08:34:47;5.20;99.90
45012;DHT22;63444;48.148;11.542;2023-01-10T08:37:13;5.10;99.90
45012;DHT22;63444;48.148;11.542;2023-01-10T08:39:38;5.10;99.90
45012;DHT22;63444;48.148;11.542;2023-01-10T08:42:04;5.00;99.90
45012;DHT22;63444;48.148;11.542;2023-01-10T08:44:30;5.00;99.90
45012;DHT22;63444;48.148;11.542;2023-01-10T08:46:55;5.00;99.90
45012;DHT22;63444;48.148;11.542;2023-01-10T08:49:21;5.00;99.90
45012;DHT22;63444;48.148;11.542;2023-01-10T08:51:48;5.00;99.90
45012;DHT22;63444;48.148;11.542;2023-01-10T08:54:14;5.00;99.90
45012;DHT22;63444;48.148;11.542;2023-01-10T08:56:40;5.00;99.90
45012;DHT22;63444;48.148;11.542;2023-01-10T08:59:06;5.00;99.90
45012;DHT22;63444;48.148;11.542;2023-01-10T09:01:32;5.10;99.90
45012;DHT22;63444;48.148;11.542;2023-01-10T09:03:59;5.10;99.90
45012;DHT22;63444;48.148;11.542;2023-01-10T09:06:25;5.00;99.90
45012;DHT22;63444;48.148;11.542;2023-01-10T09:08:51;5.00;99.90
45012;DHT22;63444;48.148;11.542;2023-01-10T09:11:16;5.00;99.90
45012;DHT22;63444;48.148;11.542;2023-01-10T09:13:42;4.90;99.90
45012;DHT22;63444;48.148;11.542;2023-01-10T09:16:08;4.90;99.90
45012;DHT22;63444;48.148;11.542;2023-01-10T09:18:36;4.80;99.90
45012;DHT22;63444;48.148;11.542;2023-01-10T09:21:02;4.90;99.90
45012;DHT22;63444;48.148;11.542;2023-01-10T09:23:28;4.90;99.90
45012;DHT22;63444;48.148;11.542;2023-01-10T09:25:54;4.90;99.90
45012;DHT22;63444;48.148;11.542;2023-01-10T09:28:22;4.80;99.90
45012;DHT22;63444;48.148;11.542;2023-01-10T09:30:51;4.80;99.90
45012;DHT22;63444;48.148;11.542;2023-01-10T09:33:17;4.80;99.90
45012;DHT22;63444;48.148;11.542;2023-01-10T09:35:44;4.90;99.90
45012;DHT22;63444;48.148;11.542;2023-01-10T09:38:13;4.90;99.90
45012;DHT22;63444;48.148;11.542;2023-01-10T09:43:50;5.20;99.90
45012;DHT22;63444;48.148;11.542;2023-01-10T09:46:56;5.40;99.90
45012;DHT22;63444;48.148;11.542;2023-01-10T09:52:02;5.40;99.90
45012;DHT22;63444;48.148;11.542;2023-01-10T09:54:41;5.50;99.90
45012;DHT22;63444;48.148;11.542;2023-01-10T09:57:14;5.60;99.90
45012;DHT22;63444;48.148;11.542;2023-01-10T09:59:41;5.60;99.90
45012;DHT22;63444;48.148;11.542;2023-01-10T10:02:30;5.70;99.90
45012;DHT22;63444;48.148;11.542;2023-01-10T10:05:20;5.70;99.90
45012;DHT22;63444;48.148;11.542;2023-01-10T10:07:55;5.90;99.90
45012;DHT22;63444;48.148;11.542;2023-01-10T10:10:38;6.00;99.90
45012;DHT22;63444;48.148;11.542;2023-01-10T10:13:31;5.90;99.90
45012;DHT22;63444;48.148;11.542;2023-01-10T10:18:53;6.00;99.90
45012;DHT22;63444;48.148;11.542;2023-01-10T10:21:35;6.00;99.90
45012;DHT22;63444;48.148;11.542;2023-01-10T10:26:55;5.90;99.90
45012;DHT22;63444;48.148;11.542;2023-01-10T10:32:18;5.70;99.90
45012;DHT22;63444;48.148;11.542;2023-01-10T10:34:52;5.70;99.90
45012;DHT22;63444;48.148;11.542;2023-01-10T10:37:38;5.70;99.90
45012;DHT22;63444;48.148;11.542;2023-01-10T10:40:06;5.70;99.90
45012;DHT22;63444;48.148;11.542;2023-01-10T10:42:43;5.80;99.90
45012;DHT22;63444;48.148;11.542;2023-01-10T10:47:46;5.80;99.90
45012;DHT22;63444;48.148;11.542;2023-01-10T10:52:41;6.00;99.90
45012;DHT22;63444;48.148;11.542;2023-01-10T10:55:13;6.00;99.90
45012;DHT22;63444;48.148;11.542;2023-01-10T10:57:41;6.20;99.90
45012;DHT22;63444;48.148;11.542;2023-01-10T11:00:09;6.30;99.90
45012;DHT22;63444;48.148;11.542;2023-01-10T11:02:42;6.50;99.90
45012;DHT22;63444;48.148;11.542;2023-01-10T11:05:23;6.60;99.90
45012;DHT22;63444;48.148;11.542;2023-01-10T11:07:58;6.70;99.90
45012;DHT22;63444;48.148;11.542;2023-01-10T11:10:24;6.70;99.90
45012;DHT22;63444;48.148;11.542;2023-01-10T11:13:20;6.60;99.90
45012;DHT22;63444;48.148;11.542;2023-01-10T11:15:48;6.50;99.90
45012;DHT22;63444;48.148;11.542;2023-01-10T11:18:17;6.50;99.90
45012;DHT22;63444;48.148;11.542;2023-01-10T11:21:07;6.40;99.90
45012;DHT22;63444;48.148;11.542;2023-01-10T11:26:36;6.30;99.90
45012;DHT22;63444;48.148;11.542;2023-01-10T11:31:40;6.10;99.90
45012;DHT22;63444;48.148;11.542;2023-01-10T11:34:20;6.10;99.90
45012;DHT22;63444;48.148;11.542;2023-01-10T11:37:04;6.10;99.90
45012;DHT22;63444;48.148;11.542;2023-01-10T11:39:31;6.00;99.90
45012;DHT22;63444;48.148;11.542;2023-01-10T11:41:57;6.00;99.90
45012;DHT22;63444;48.148;11.542;2023-01-10T11:44:42;5.90;99.90
45012;DHT22;63444;48.148;11.542;2023-01-10T11:47:09;6.00;99.90
45012;DHT22;63444;48.148;11.542;2023-01-10T11:49:41;6.00;99.90
45012;DHT22;63444;48.148;11.542;2023-01-10T11:52:22;6.00;99.90
45012;DHT22;63444;48.148;11.542;2023-01-10T11:54:50;5.90;99.90
45012;DHT22;63444;48.148;11.542;2023-01-10T11:57:21;5.90;99.90
45012;DHT22;63444;48.148;11.542;2023-01-10T12:00:04;5.90;99.90
45012;DHT22;63444;48.148;11.542;2023-01-10T12:02:36;5.90;99.90
45012;DHT22;63444;48.148;11.542;2023-01-10T12:05:09;6.00;99.90
45012;DHT22;63444;48.148;11.542;2023-01-10T12:08:00;6.00;99.90
45012;DHT22;63444;48.148;11.542;2023-01-10T12:10:31;6.10;99.90
45012;DHT22;63444;48.148;11.542;2023-01-10T12:13:07;6.10;99.90
45012;DHT22;63444;48.148;11.542;2023-01-10T12:15:37;6.20;99.90
45012;DHT22;63444;48.148;11.542;2023-01-10T12:18:05;6.40;99.90
45012;DHT22;63444;48.148;11.542;2023-01-10T12:21:01;6.70;99.90
45012;DHT22;63444;48.148;11.542;2023-01-10T12:23:29;6.80;99.90
45012;DHT22;63444;48.148;11.542;2023-01-10T12:25:58;6.80;99.90
45012;DHT22;63444;48.148;11.542;2023-01-10T12:28:27;6.80;99.90
45012;DHT22;63444;48.148;11.542;2023-01-10T12:30:56;6.90;99.90
45012;DHT22;63444;48.148;11.542;2023-01-10T12:33:26;7.00;99.90
45012;DHT22;63444;48.148;11.542;2023-01-10T12:36:03;7.10;99.90
45012;DHT22;63444;48.148;11.542;2023-01-10T12:50:25;6.80;99.90
45012;DHT22;63444;48.148;11.542;2023-01-10T12:53:28;6.70;99.90
45012;DHT22;63444;48.148;11.542;2023-01-10T12:55:55;6.70;99.90
45012;DHT22;63444;48.148;11.542;2023-01-10T12:58:25;6.60;99.90
45012;DHT22;63444;48.148;11.542;2023-01-10T13:00:56;6.50;99.90
45012;DHT22;63444;48.148;11.542;2023-01-10T13:03:29;6.50;99.90
45012;DHT22;63444;48.148;11.542;2023-01-10T13:05:57;6.60;99.90
45012;DHT22;63444;48.148;11.542;2023-01-10T13:08:28;6.50;99.90
45012;DHT22;63444;48.148;11.542;2023-01-10T13:10:57;6.60;99.90
45012;DHT22;63444;48.148;11.542;2023-01-10T13:13:43;6.50;99.90
45012;DHT22;63444;48.148;11.542;2023-01-10T13:16:39;6.60;99.90
45012;DHT22;63444;48.148;11.542;2023-01-10T13:21:35;6.60;99.90
45012;DHT22;63444;48.148;11.542;2023-01-10T13:24:03;6.70;99.90
45012;DHT22;63444;48.148;11.542;2023-01-10T13:26:52;6.70;99.90
45012;DHT22;63444;48.148;11.542;2023-01-10T13:29:30;6.80;99.90
45012;DHT22;63444;48.148;11.542;2023-01-10T13:32:21;6.80;99.90
45012;DHT22;63444;48.148;11.542;2023-01-10T13:34:48;6.80;99.90
45012;DHT22;63444;48.148;11.542;2023-01-10T13:37:44;6.70;99.90
45012;DHT22;63444;48.148;11.542;2023-01-10T13:40:25;6.80;99.90
45012;DHT22;63444;48.148;11.542;2023-01-10T13:48:40;6.80;99.90
45012;DHT22;63444;48.148;11.542;2023-01-10T13:51:15;6.80;99.90
45012;DHT22;63444;48.148;11.542;2023-01-10T13:56:45;6.70;99.90
45012;DHT22;63444;48.148;11.542;2023-01-10T14:02:15;6.80;99.90
45012;DHT22;63444;48.148;11.542;2023-01-10T14:05:05;6.90;99.90
45012;DHT22;63444;48.148;11.542;2023-01-10T14:07:44;6.90;99.90
45012;DHT22;63444;48.148;11.542;2023-01-10T14:10:27;6.80;99.90
45012;DHT22;63444;48.148;11.542;2023-01-10T14:13:00;6.70;99.90
45012;DHT22;63444;48.148;11.542;2023-01-10T14:15:40;6.70;99.90
45012;DHT22;63444;48.148;11.542;2023-01-10T14:18:37;6.70;99.90
45012;DHT22;63444;48.148;11.542;2023-01-10T14:21:07;6.60;99.90
45012;DHT22;63444;48.148;11.542;2023-01-10T14:23:42;6.60;99.90
45012;DHT22;63444;48.148;11.542;2023-01-10T14:26:33;6.60;99.90
45012;DHT22;63444;48.148;11.542;2023-01-10T14:29:06;6.70;99.90
45012;DHT22;63444;48.148;11.542;2023-01-10T14:31:33;6.70;99.90
45012;DHT22;63444;48.148;11.542;2023-01-10T14:34:01;6.70;99.90
45012;DHT22;63444;48.148;11.542;2023-01-10T14:36:33;6.70;99.90
45012;DHT22;63444;48.148;11.542;2023-01-10T14:39:04;6.80;99.90
45012;DHT22;63444;48.148;11.542;2023-01-10T14:41:35;6.70;99.90
45012;DHT22;63444;48.148;11.542;2023-01-10T14:44:23;6.70;99.90
45012;DHT22;63444;48.148;11.542;2023-01-10T14:46:54;6.70;99.90
45012;DHT22;63444;48.148;11.542;2023-01-10T14:49:33;6.60;99.90
45012;DHT22;63444;48.148;11.542;2023-01-10T14:52:20;6.60;99.90
45012;DHT22;63444;48.148;11.542;2023-01-10T14:54:52;6.70;99.90
45012;DHT22;63444;48.148;11.542;2023-01-10T14:57:21;6.70;99.90
45012;DHT22;63444;48.148;11.542;2023-01-10T14:59:48;6.70;99.90
45012;DHT22;63444;48.148;11.542;2023-01-10T15:02:22;6.60;99.90
45012;DHT22;63444;48.148;11.542;2023-01-10T15:04:55;6.70;99.90
45012;DHT22;63444;48.148;11.542;2023-01-10T15:07:23;6.60;99.90
45012;DHT22;63444;48.148;11.542;2023-01-10T15:09:51;6.70;99.90
45012;DHT22;63444;48.148;11.542;2023-01-10T15:12:18;6.70;99.90
45012;DHT22;63444;48.148;11.542;2023-01-10T15:14:46;6.70;99.90
45012;DHT22;63444;48.148;11.542;2023-01-10T15:17:15;6.70;99.90
45012;DHT22;63444;48.148;11.542;2023-01-10T15:19:43;6.70;99.90
45012;DHT22;63444;48.148;11.542;2023-01-10T15:22:29;6.70;99.90
45012;DHT22;63444;48.148;11.542;2023-01-10T15:25:15;6.60;99.90
45012;DHT22;63444;48.148;11.542;2023-01-10T15:27:51;6.60;99.90
45012;DHT22;63444;48.148;11.542;2023-01-10T15:30:19;6.60;99.90
45012;DHT22;63444;48.148;11.542;2023-01-10T15:32:48;6.60;99.90
45012;DHT22;63444;48.148;11.542;2023-01-10T15:35:15;6.60;99.90
45012;DHT22;63444;48.148;11.542;2023-01-10T15:37:48;6.70;99.90
45012;DHT22;63444;48.148;11.542;2023-01-10T15:40:29;6.60;99.90
45012;DHT22;63444;48.148;11.542;2023-01-10T15:45:44;6.30;99.90
45012;DHT22;63444;48.148;11.542;2023-01-10T15:48:39;6.30;99.90
45012;DHT22;63444;48.148;11.542;2023-01-10T15:51:32;6.20;99.90
45012;DHT22;63444;48.148;11.542;2023-01-10T15:54:01;6.20;99.90
45012;DHT22;63444;48.148;11.542;2023-01-10T15:56:50;6.20;99.90
45012;DHT22;63444;48.148;11.542;2023-01-10T16:04:19;6.00;99.90
45012;DHT22;63444;48.148;11.542;2023-01-10T16:06:49;5.90;99.90
45012;DHT22;63444;48.148;11.542;2023-01-10T16:09:19;5.90;99.90
45012;DHT22;63444;48.148;11.542;2023-01-10T16:11:53;5.90;99.90
45012;DHT22;63444;48.148;11.542;2023-01-10T16:14:38;5.90;99.90
45012;DHT22;63444;48.148;11.542;2023-01-10T16:17:04;5.90;99.90
45012;DHT22;63444;48.148;11.542;2023-01-10T16:19:30;5.90;99.90
45012;DHT22;63444;48.148;11.542;2023-01-10T16:21:56;5.80;99.90
45012;DHT22;63444;48.148;11.542;2023-01-10T16:24:26;5.70;99.90
45012;DHT22;63444;48.148;11.542;2023-01-10T16:26:53;5.80;99.90
45012;DHT22;63444;48.148;11.542;2023-01-10T16:29:21;5.80;99.90
45012;DHT22;63444;48.148;11.542;2023-01-10T16:31:50;5.70;99.90
45012;DHT22;63444;48.148;11.542;2023-01-10T16:34:19;5.70;99.90
45012;DHT22;63444;48.148;11.542;2023-01-10T16:36:46;5.70;99.90
45012;DHT22;63444;48.148;11.542;2023-01-10T16:39:15;5.70;99.90
45012;DHT22;63444;48.148;11.542;2023-01-10T16:41:42;5.70;99.90
45012;DHT22;63444;48.148;11.542;2023-01-10T16:44:26;5.70;99.90
45012;DHT22;63444;48.148;11.542;2023-01-10T16:46:52;5.70;99.90
45012;DHT22;63444;48.148;11.542;2023-01-10T16:49:18;5.60;99.90
45012;DHT22;63444;48.148;11.542;2023-01-10T16:51:45;5.60;99.90
45012;DHT22;63444;48.148;11.542;2023-01-10T16:54:15;5.50;99.90
45012;DHT22;63444;48.148;11.542;2023-01-10T16:56:44;5.60;99.90
45012;DHT22;63444;48.148;11.542;2023-01-10T16:59:11;5.50;99.90
45012;DHT22;63444;48.148;11.542;2023-01-10T17:02:02;5.50;99.90
45012;DHT22;63444;48.148;11.542;2023-01-10T17:04:28;5.40;99.90
45012;DHT22;63444;48.148;11.542;2023-01-10T17:06:56;5.30;99.90
45012;DHT22;63444;48.148;11.542;2023-01-10T17:09:26;5.40;99.90
45012;DHT22;63444;48.148;11.542;2023-01-10T17:12:05;5.50;99.90
45012;DHT22;63444;48.148;11.542;2023-01-10T17:14:35;5.50;99.90
45012;DHT22;63444;48.148;11.542;2023-01-10T17:17:01;5.50;99.90
45012;DHT22;63444;48.148;11.542;2023-01-10T17:19:28;5.50;99.90